Eden Isle, Arkansas
Current Conditions -  °F | °C
As of 2:35 AM on Saturday 22 Nov 2014 (Local Time) from KCCA Reporting Station
Light Rain Light Rain  
Wind Chill: 45°   Ceiling: 800
Heat Index: 45°   Visibility: 1mi
Dew Point: 45°   Wind: 0mph
Humidity: 100%   Direction: NA
Pressure: 30.24"   Gusts: NA
Location:  35.6262°N, 92.064°W
Report Text: KCCA 220835Z AUTO 00000KT 1SM -RA BKN008 BKN024 OVC039 07/07 A3024 RMK AO2 LTG DSNT SW P0003
Loading
Personal Weather Stations






























Interactive Weather Map New forecast layout! Learn more

10-Day Weather Forecast

Advertisements
Track Severe Weather on mobile